Time;durP1;ratioP1;P1;durP2;ratioP2;P2;SDS_P1;SDS_P2;PMS_P1;PMS_P2;Temp;Humidity;BMP_temperature;BMP_pressure;BME280_temperature;BME280_humidity;BME280_pressure;Samples;Min_cycle;Max_cycle;Signal;HPM_P1;HPM_P2
2023/09/05 00:01:48;;;;;;;10.40;6.72;;;;;;;;;;4995558;28;20555;-69
2023/09/05 00:04:14;;;;;;;9.90;6.93;;;;;;;;;;4995454;28;20030;-68
2023/09/05 00:06:40;;;;;;;10.13;6.70;;;;;;;;;;4999972;28;20438;-68
2023/09/05 00:09:05;;;;;;;10.23;6.63;;;;;;;;;;4995057;28;20194;-69
2023/09/05 00:11:32;;;;;;;10.52;7.07;;;;;;;;;;5001207;28;20146;-68
2023/09/05 00:14:00;;;;;;;9.50;6.55;;;;;;;;;;4999716;28;20777;-68
2023/09/05 00:16:29;;;;;;;10.98;6.75;;;;;;;;;;4985122;28;20029;-67
2023/09/05 00:18:54;;;;;;;8.68;6.57;;;;;;;;;;4995506;28;20523;-68
2023/09/05 00:21:20;;;;;;;10.27;6.97;;;;;;;;;;4998771;28;20081;-68
2023/09/05 00:23:45;;;;;;;10.93;7.30;;;;;;;;;;5001172;28;20429;-69
2023/09/05 00:26:11;;;;;;;9.05;6.30;;;;;;;;;;4997855;28;20117;-68
2023/09/05 00:28:36;;;;;;;10.00;5.88;;;;;;;;;;4994221;28;20133;-68
2023/09/05 00:31:01;;;;;;;10.80;6.57;;;;;;;;;;4998523;28;20030;-68
2023/09/05 00:33:29;;;;;;;8.25;6.07;;;;;;;;;;5000841;28;20070;-69
2023/09/05 00:35:54;;;;;;;14.63;6.75;;;;;;;;;;4995761;28;20088;-69
2023/09/05 00:38:22;;;;;;;8.48;6.20;;;;;;;;;;5000674;28;20635;-68
2023/09/05 00:40:49;;;;;;;12.63;6.88;;;;;;;;;;5003338;28;20100;-68
2023/09/05 00:43:17;;;;;;;10.30;6.60;;;;;;;;;;5001077;28;20031;-68
2023/09/05 00:45:49;;;;;;;10.35;6.43;;;;;;;;;;5000228;28;20057;-68
2023/09/05 00:48:16;;;;;;;9.68;6.53;;;;;;;;;;4981985;28;20034;-68
2023/09/05 00:50:41;;;;;;;10.45;6.60;;;;;;;;;;4996742;28;20081;-68
2023/09/05 00:53:08;;;;;;;9.80;6.82;;;;;;;;;;5005752;28;20428;-68
2023/09/05 00:55:33;;;;;;;12.73;6.78;;;;;;;;;;4991273;28;20065;-68
2023/09/05 00:58:00;;;;;;;11.25;6.10;;;;;;;;;;4993660;28;20061;-68
2023/09/05 01:00:26;;;;;;;10.15;6.43;;;;;;;;;;4998867;28;20133;-68
2023/09/05 01:02:54;;;;;;;10.32;6.53;;;;;;;;;;5000499;28;20486;-68
2023/09/05 01:05:26;;;;;;;12.50;6.95;;;;;;;;;;4995894;28;20111;-68
2023/09/05 01:08:12;;;;;;;10.38;6.80;;;;;;;;;;4993901;28;20046;-68
2023/09/05 01:11:08;;;;;;;10.40;6.30;;;;;;;;;;4994044;28;20035;-68
2023/09/05 01:13:36;;;;;;;10.55;6.10;;;;;;;;;;4996157;28;20084;-68
2023/09/05 01:16:03;;;;;;;9.88;6.53;;;;;;;;;;5000725;28;20093;-68
2023/09/05 01:18:33;;;;;;;9.77;6.70;;;;;;;;;;4998905;28;20038;-68
2023/09/05 01:21:17;;;;;;;9.68;6.38;;;;;;;;;;4992738;28;20060;-68
2023/09/05 01:24:11;;;;;;;10.38;6.05;;;;;;;;;;4991534;28;20058;-68
2023/09/05 01:26:37;;;;;;;9.07;6.05;;;;;;;;;;4992713;28;20045;-68
2023/09/05 01:29:03;;;;;;;9.48;6.03;;;;;;;;;;4980771;28;20076;-68
2023/09/05 01:31:29;;;;;;;8.85;5.38;;;;;;;;;;4993525;28;20066;-68
2023/09/05 01:33:54;;;;;;;9.27;6.07;;;;;;;;;;4999824;28;20042;-68
2023/09/05 01:36:20;;;;;;;9.73;5.80;;;;;;;;;;4995137;28;20519;-68
2023/09/05 01:38:45;;;;;;;12.65;6.63;;;;;;;;;;4998966;28;20429;-68
2023/09/05 01:41:11;;;;;;;12.52;6.68;;;;;;;;;;4999762;28;20041;-68
2023/09/05 01:43:36;;;;;;;9.82;6.38;;;;;;;;;;4994704;28;20530;-68
2023/09/05 01:46:02;;;;;;;11.10;6.22;;;;;;;;;;4993872;28;20077;-68
2023/09/05 01:48:27;;;;;;;10.73;6.28;;;;;;;;;;4997746;28;20046;-68
2023/09/05 01:50:53;;;;;;;10.15;6.15;;;;;;;;;;4999488;28;20029;-68
2023/09/05 01:53:18;;;;;;;9.48;6.30;;;;;;;;;;4988517;28;20423;-68
2023/09/05 01:55:44;;;;;;;12.25;6.28;;;;;;;;;;4989950;28;20047;-68
2023/09/05 01:58:09;;;;;;;10.13;6.40;;;;;;;;;;4993286;28;20153;-68
2023/09/05 02:00:34;;;;;;;9.25;5.85;;;;;;;;;;4995559;28;20046;-68
2023/09/05 02:03:00;;;;;;;11.43;6.35;;;;;;;;;;4999821;28;20137;-68
2023/09/05 02:05:25;;;;;;;8.10;5.32;;;;;;;;;;4996057;28;20161;-68
2023/09/05 02:07:50;;;;;;;12.77;6.13;;;;;;;;;;4993072;28;20048;-68
2023/09/05 02:10:16;;;;;;;9.20;6.32;;;;;;;;;;4995929;28;20061;-68
2023/09/05 02:12:44;;;;;;;10.20;5.90;;;;;;;;;;4999667;28;20049;-68
2023/09/05 02:15:10;;;;;;;11.38;6.25;;;;;;;;;;4997557;28;20046;-68
2023/09/05 02:17:36;;;;;;;11.23;5.88;;;;;;;;;;4995958;28;20083;-68
2023/09/05 02:20:01;;;;;;;10.85;6.18;;;;;;;;;;4997283;28;20042;-68
2023/09/05 02:22:27;;;;;;;9.30;6.10;;;;;;;;;;4975247;28;20040;-68
2023/09/05 02:24:52;;;;;;;10.38;6.47;;;;;;;;;;4980468;28;20105;-68
2023/09/05 02:27:17;;;;;;;10.55;6.00;;;;;;;;;;4998009;28;20053;-68
2023/09/05 02:29:49;;;;;;;10.38;5.97;;;;;;;;;;4987287;28;20528;-68
2023/09/05 02:32:17;;;;;;;8.95;5.75;;;;;;;;;;4998802;28;20049;-68
2023/09/05 02:34:42;;;;;;;9.52;6.15;;;;;;;;;;5001195;28;20054;-68
2023/09/05 02:37:08;;;;;;;10.15;5.18;;;;;;;;;;4981786;28;20069;-68
2023/09/05 02:39:33;;;;;;;9.32;6.10;;;;;;;;;;4976060;28;20050;-67
2023/09/05 02:41:58;;;;;;;10.90;6.18;;;;;;;;;;4992513;28;20045;-68
2023/09/05 02:44:24;;;;;;;9.57;6.18;;;;;;;;;;4992875;28;20053;-68
2023/09/05 02:46:51;;;;;;;9.43;5.80;;;;;;;;;;4996020;28;20038;-68
2023/09/05 02:49:16;;;;;;;10.18;6.20;;;;;;;;;;4992344;28;20038;-68
2023/09/05 02:51:41;;;;;;;12.00;6.25;;;;;;;;;;4987143;28;20480;-68
2023/09/05 02:54:07;;;;;;;9.55;5.85;;;;;;;;;;4989444;28;20039;-68
2023/09/05 02:56:32;;;;;;;8.77;5.80;;;;;;;;;;4992356;28;20034;-68
2023/09/05 02:58:58;;;;;;;11.65;5.57;;;;;;;;;;4991774;28;20671;-68
2023/09/05 03:01:23;;;;;;;9.57;5.82;;;;;;;;;;4996841;28;20030;-68
2023/09/05 03:03:48;;;;;;;10.10;5.95;;;;;;;;;;4998452;28;20026;-68
2023/09/05 03:06:15;;;;;;;9.63;5.82;;;;;;;;;;4992822;28;20062;-68
2023/09/05 03:08:47;;;;;;;11.95;5.75;;;;;;;;;;4991940;28;20585;-68
2023/09/05 03:11:17;;;;;;;9.93;5.90;;;;;;;;;;4991975;28;20034;-68
2023/09/05 03:13:43;;;;;;;11.10;5.63;;;;;;;;;;4997249;28;20030;-68
2023/09/05 03:16:08;;;;;;;11.77;5.95;;;;;;;;;;4998397;28;20033;-68
2023/09/05 03:18:34;;;;;;;9.52;6.07;;;;;;;;;;4993287;28;20092;-68
2023/09/05 03:20:59;;;;;;;12.75;5.93;;;;;;;;;;4991980;28;20053;-68
2023/09/05 03:23:25;;;;;;;11.15;5.78;;;;;;;;;;4994890;28;20092;-68
2023/09/05 03:25:52;;;;;;;10.52;5.53;;;;;;;;;;4996126;28;20038;-68
2023/09/05 03:28:17;;;;;;;6.95;5.20;;;;;;;;;;4993984;28;20025;-68
2023/09/05 03:30:43;;;;;;;8.55;5.50;;;;;;;;;;4995946;28;20026;-68
2023/09/05 03:33:09;;;;;;;11.43;5.78;;;;;;;;;;4995651;28;20038;-68
2023/09/05 03:35:35;;;;;;;8.65;5.65;;;;;;;;;;5001291;28;20754;-68
2023/09/05 03:38:01;;;;;;;8.50;5.43;;;;;;;;;;5002288;28;20042;-68
2023/09/05 03:40:27;;;;;;;7.45;5.50;;;;;;;;;;4997550;28;20060;-68
2023/09/05 03:42:52;;;;;;;9.00;5.22;;;;;;;;;;4998307;28;20670;-68
2023/09/05 03:45:18;;;;;;;8.90;5.32;;;;;;;;;;5000311;28;20038;-68
2023/09/05 03:47:44;;;;;;;11.02;6.00;;;;;;;;;;5002352;28;20031;-68
2023/09/05 03:50:09;;;;;;;7.90;5.45;;;;;;;;;;5002285;28;20034;-68
2023/09/05 03:52:34;;;;;;;9.60;5.93;;;;;;;;;;4977395;28;20050;-68
2023/09/05 03:55:00;;;;;;;9.73;5.65;;;;;;;;;;5002191;28;20034;-68
2023/09/05 03:57:26;;;;;;;8.13;5.20;;;;;;;;;;4996514;28;20565;-68
2023/09/05 03:59:51;;;;;;;9.15;5.68;;;;;;;;;;4995398;28;20062;-68
2023/09/05 04:02:16;;;;;;;8.50;5.30;;;;;;;;;;5000045;28;20089;-68
2023/09/05 04:04:42;;;;;;;9.15;5.60;;;;;;;;;;5005589;28;20035;-68
2023/09/05 04:07:09;;;;;;;7.80;5.40;;;;;;;;;;5000403;28;20029;-68
2023/09/05 04:09:34;;;;;;;10.73;5.68;;;;;;;;;;5001456;28;20056;-68
2023/09/05 04:11:59;;;;;;;10.00;5.70;;;;;;;;;;4997791;28;20844;-68
2023/09/05 04:14:25;;;;;;;8.05;5.60;;;;;;;;;;4995164;28;20537;-68
2023/09/05 04:16:50;;;;;;;11.40;5.38;;;;;;;;;;4998665;28;20080;-68
2023/09/05 04:19:15;;;;;;;8.52;5.47;;;;;;;;;;5001531;28;20034;-68
2023/09/05 04:21:41;;;;;;;8.73;5.28;;;;;;;;;;4998614;28;20021;-68
2023/09/05 04:24:06;;;;;;;7.93;5.18;;;;;;;;;;4994696;28;20046;-68
2023/09/05 04:26:33;;;;;;;7.85;5.13;;;;;;;;;;4996693;28;20492;-68
2023/09/05 04:28:59;;;;;;;10.82;5.65;;;;;;;;;;4999313;28;20508;-68
2023/09/05 04:31:25;;;;;;;8.00;5.18;;;;;;;;;;4973787;28;20026;-68
2023/09/05 04:33:51;;;;;;;8.27;5.55;;;;;;;;;;5001459;28;20647;-68
2023/09/05 04:36:16;;;;;;;9.05;5.18;;;;;;;;;;4995560;28;20526;-68
2023/09/05 04:38:45;;;;;;;10.10;5.22;;;;;;;;;;4995681;28;20038;-68
2023/09/05 04:41:11;;;;;;;11.57;5.85;;;;;;;;;;4994914;28;20034;-68
2023/09/05 04:43:37;;;;;;;7.18;5.00;;;;;;;;;;4995705;28;20052;-68
2023/09/05 04:46:09;;;;;;;9.02;5.18;;;;;;;;;;4995076;28;20021;-68
2023/09/05 04:48:35;;;;;;;8.10;5.47;;;;;;;;;;4993976;28;20133;-68
2023/09/05 04:51:02;;;;;;;9.45;5.72;;;;;;;;;;5000190;28;20137;-68
2023/09/05 04:53:31;;;;;;;9.07;5.85;;;;;;;;;;4995539;28;20089;-68
2023/09/05 04:56:00;;;;;;;12.25;4.85;;;;;;;;;;4996581;28;20121;-68
2023/09/05 04:58:29;;;;;;;9.43;5.30;;;;;;;;;;4990012;28;20102;-68
2023/09/05 05:01:02;;;;;;;10.95;5.40;;;;;;;;;;4997684;28;20030;-68
2023/09/05 05:03:32;;;;;;;13.07;5.23;;;;;;;;;;5000694;28;20070;-68
2023/09/05 05:05:57;;;;;;;9.20;4.85;;;;;;;;;;4999811;28;21041;-68
2023/09/05 05:08:23;;;;;;;11.32;5.22;;;;;;;;;;4996235;28;20125;-68
2023/09/05 05:10:48;;;;;;;9.32;5.20;;;;;;;;;;5002545;28;20042;-68
2023/09/05 05:13:14;;;;;;;11.75;5.38;;;;;;;;;;5001615;28;20029;-67
2023/09/05 05:15:39;;;;;;;9.95;4.85;;;;;;;;;;5000269;28;20152;-68
2023/09/05 05:18:05;;;;;;;11.25;5.00;;;;;;;;;;4993610;28;20484;-68
2023/09/05 05:20:30;;;;;;;13.20;4.80;;;;;;;;;;4993826;28;20145;-68
2023/09/05 05:22:55;;;;;;;8.80;5.38;;;;;;;;;;5000146;28;20153;-68
2023/09/05 05:25:21;;;;;;;17.30;4.97;;;;;;;;;;4999938;28;20080;-68
2023/09/05 05:27:46;;;;;;;11.70;5.00;;;;;;;;;;4995017;28;20527;-68
2023/09/05 05:30:12;;;;;;;9.43;4.78;;;;;;;;;;4990992;28;20045;-68
2023/09/05 05:32:37;;;;;;;7.85;5.20;;;;;;;;;;4997098;28;20065;-68
2023/09/05 05:35:03;;;;;;;11.20;5.28;;;;;;;;;;4999285;28;20046;-68
2023/09/05 05:37:29;;;;;;;12.07;5.10;;;;;;;;;;4996832;28;23007;-68
2023/09/05 05:39:54;;;;;;;7.47;4.95;;;;;;;;;;4993453;28;20065;-68
2023/09/05 05:42:20;;;;;;;8.95;4.97;;;;;;;;;;4995469;28;20155;-68
2023/09/05 05:44:45;;;;;;;10.60;4.90;;;;;;;;;;4995581;28;20034;-68
2023/09/05 05:47:11;;;;;;;11.77;5.30;;;;;;;;;;4999759;28;20154;-68
2023/09/05 05:49:36;;;;;;;8.77;5.20;;;;;;;;;;4995672;28;20062;-68
2023/09/05 05:52:03;;;;;;;15.80;5.53;;;;;;;;;;4993284;28;20057;-68
2023/09/05 05:54:29;;;;;;;9.00;4.78;;;;;;;;;;4999395;28;20030;-68
2023/09/05 05:56:55;;;;;;;8.88;4.78;;;;;;;;;;4992722;28;20038;-68
2023/09/05 05:59:22;;;;;;;9.30;5.38;;;;;;;;;;4995568;28;20045;-69
2023/09/05 06:01:50;;;;;;;6.43;4.32;;;;;;;;;;4995757;28;20038;-68
2023/09/05 06:04:16;;;;;;;12.10;4.78;;;;;;;;;;4986596;28;20436;-68
2023/09/05 06:06:45;;;;;;;8.63;4.97;;;;;;;;;;4990074;28;20048;-68
2023/09/05 06:09:11;;;;;;;10.75;5.00;;;;;;;;;;4992249;28;20042;-68
2023/09/05 06:11:36;;;;;;;9.15;4.75;;;;;;;;;;4988373;28;20124;-68
2023/09/05 06:14:02;;;;;;;10.50;4.75;;;;;;;;;;4993676;28;20050;-68
2023/09/05 06:16:28;;;;;;;7.75;4.30;;;;;;;;;;4998914;28;20026;-68
2023/09/05 06:18:53;;;;;;;10.13;5.28;;;;;;;;;;4985952;28;20063;-68
2023/09/05 06:21:19;;;;;;;12.90;5.35;;;;;;;;;;4989396;28;20154;-68
2023/09/05 06:23:44;;;;;;;12.02;4.53;;;;;;;;;;4976507;28;20479;-68
2023/09/05 06:26:09;;;;;;;8.35;4.60;;;;;;;;;;4982697;28;20045;-68
2023/09/05 06:28:35;;;;;;;8.85;4.20;;;;;;;;;;4991436;28;20066;-68
2023/09/05 06:31:00;;;;;;;12.57;4.65;;;;;;;;;;4996115;28;20040;-68
2023/09/05 06:33:26;;;;;;;7.68;4.50;;;;;;;;;;4997122;28;20076;-68
2023/09/05 06:35:52;;;;;;;10.30;4.32;;;;;;;;;;5001883;28;21201;-67
2023/09/05 06:38:17;;;;;;;9.93;4.60;;;;;;;;;;5000252;28;20061;-67
2023/09/05 06:40:43;;;;;;;8.88;4.55;;;;;;;;;;4983270;28;20125;-67
2023/09/05 06:43:09;;;;;;;10.38;4.63;;;;;;;;;;4996215;28;20112;-67
2023/09/05 06:45:35;;;;;;;7.00;4.38;;;;;;;;;;4984850;28;20471;-67
2023/09/05 06:48:00;;;;;;;9.48;4.00;;;;;;;;;;4995373;28;20034;-67
2023/09/05 06:50:26;;;;;;;6.28;4.07;;;;;;;;;;4998468;28;20030;-67
2023/09/05 06:52:52;;;;;;;8.05;3.95;;;;;;;;;;4990860;28;20394;-67
2023/09/05 06:55:17;;;;;;;7.55;4.30;;;;;;;;;;4998720;28;20555;-67
2023/09/05 06:57:43;;;;;;;8.57;4.50;;;;;;;;;;4994997;28;20093;-67
2023/09/05 07:00:09;;;;;;;7.22;4.30;;;;;;;;;;4991191;28;20030;-67
2023/09/05 07:02:35;;;;;;;7.82;3.70;;;;;;;;;;4992597;28;20416;-67
2023/09/05 07:05:00;;;;;;;10.60;4.32;;;;;;;;;;4998182;28;20533;-67
2023/09/05 07:07:26;;;;;;;7.18;4.30;;;;;;;;;;4971342;28;20497;-67
2023/09/05 07:09:51;;;;;;;6.00;3.72;;;;;;;;;;4978230;28;20045;-67
2023/09/05 07:12:16;;;;;;;6.55;4.05;;;;;;;;;;4993718;28;20049;-67
2023/09/05 07:14:43;;;;;;;5.75;4.07;;;;;;;;;;4998303;28;20042;-67
2023/09/05 07:17:09;;;;;;;6.72;4.25;;;;;;;;;;4997056;28;20042;-67
2023/09/05 07:19:35;;;;;;;7.60;3.90;;;;;;;;;;4992010;28;20040;-67
2023/09/05 07:22:00;;;;;;;9.32;4.13;;;;;;;;;;4992717;28;20141;-67
2023/09/05 07:24:25;;;;;;;6.15;3.75;;;;;;;;;;4997766;28;20518;-67
2023/09/05 07:26:51;;;;;;;6.80;4.10;;;;;;;;;;5000502;28;20047;-67
2023/09/05 07:29:16;;;;;;;6.65;4.13;;;;;;;;;;4995949;28;20617;-67
2023/09/05 07:31:42;;;;;;;6.75;3.90;;;;;;;;;;4998072;28;20088;-67
2023/09/05 07:34:08;;;;;;;8.35;3.90;;;;;;;;;;4994565;28;20065;-67
2023/09/05 07:36:35;;;;;;;7.72;3.85;;;;;;;;;;4991474;28;20042;-67
2023/09/05 07:39:03;;;;;;;4.63;3.63;;;;;;;;;;4995132;28;20050;-67
2023/09/05 07:41:29;;;;;;;8.05;4.05;;;;;;;;;;4988101;28;20034;-67
2023/09/05 07:43:55;;;;;;;6.13;3.95;;;;;;;;;;4993716;28;20038;-67
2023/09/05 07:46:20;;;;;;;7.38;4.22;;;;;;;;;;4993694;28;20032;-67
2023/09/05 07:48:47;;;;;;;10.38;3.70;;;;;;;;;;4988855;28;20081;-67
2023/09/05 07:51:13;;;;;;;8.95;3.85;;;;;;;;;;4978454;28;20034;-67
2023/09/05 07:53:38;;;;;;;5.78;3.65;;;;;;;;;;4994045;28;20126;-67
2023/09/05 07:56:04;;;;;;;6.30;3.90;;;;;;;;;;4995484;28;20123;-67
2023/09/05 07:58:31;;;;;;;7.18;3.70;;;;;;;;;;4993316;28;20042;-67
2023/09/05 08:00:57;;;;;;;6.88;3.80;;;;;;;;;;4996007;28;20732;-67
2023/09/05 08:03:25;;;;;;;6.97;3.67;;;;;;;;;;4999069;28;20078;-67
2023/09/05 08:05:51;;;;;;;6.53;3.88;;;;;;;;;;4996329;28;20061;-67
2023/09/05 08:08:17;;;;;;;5.05;3.58;;;;;;;;;;4991474;28;20804;-67
2023/09/05 08:10:43;;;;;;;8.73;3.70;;;;;;;;;;4991905;28;20030;-67
2023/09/05 08:13:10;;;;;;;6.07;3.42;;;;;;;;;;4987087;28;20474;-67
2023/09/05 08:15:36;;;;;;;6.03;3.28;;;;;;;;;;4994477;28;20200;-67
2023/09/05 08:18:03;;;;;;;4.15;3.20;;;;;;;;;;5003316;28;20088;-67
2023/09/05 08:20:29;;;;;;;5.28;3.05;;;;;;;;;;5001227;28;20523;-67
2023/09/05 08:22:54;;;;;;;5.53;3.20;;;;;;;;;;4994435;28;20038;-67
2023/09/05 08:25:23;;;;;;;5.93;3.08;;;;;;;;;;4994811;28;20076;-67
2023/09/05 08:27:49;;;;;;;4.70;3.08;;;;;;;;;;5000937;28;20499;-67
2023/09/05 08:30:15;;;;;;;4.55;3.30;;;;;;;;;;4991036;28;20034;-67
2023/09/05 08:32:41;;;;;;;5.15;3.25;;;;;;;;;;4998055;28;20058;-67
2023/09/05 08:35:09;;;;;;;7.00;3.20;;;;;;;;;;5001160;28;20034;-67
2023/09/05 08:37:36;;;;;;;4.95;3.30;;;;;;;;;;4980155;28;20053;-67
2023/09/05 08:40:03;;;;;;;5.25;3.22;;;;;;;;;;4999466;28;20158;-67
2023/09/05 08:42:32;;;;;;;4.43;3.20;;;;;;;;;;4999364;28;20042;-67
2023/09/05 08:45:02;;;;;;;4.80;3.00;;;;;;;;;;4989086;28;20031;-67
2023/09/05 08:47:31;;;;;;;5.25;3.20;;;;;;;;;;5000468;28;20131;-67
2023/09/05 08:49:59;;;;;;;5.82;3.33;;;;;;;;;;4999634;28;20128;-67
2023/09/05 08:52:32;;;;;;;5.07;3.45;;;;;;;;;;4994439;28;20056;-67
2023/09/05 08:54:59;;;;;;;10.35;3.42;;;;;;;;;;4995216;28;20026;-67
2023/09/05 08:57:27;;;;;;;6.50;2.95;;;;;;;;;;4995167;28;20037;-67
2023/09/05 08:59:54;;;;;;;4.22;3.20;;;;;;;;;;4994301;28;20133;-67
2023/09/05 09:02:19;;;;;;;6.00;3.35;;;;;;;;;;4998739;28;20038;-67
2023/09/05 09:04:57;;;;;;;5.15;3.08;;;;;;;;;;5000756;28;20099;-67
2023/09/05 09:07:27;;;;;;;5.30;3.30;;;;;;;;;;4998199;28;20035;-67
2023/09/05 09:09:54;;;;;;;5.25;3.28;;;;;;;;;;4994428;28;20550;-67
2023/09/05 09:12:46;;;;;;;3.42;2.90;;;;;;;;;;4995388;28;20040;-67
2023/09/05 09:15:12;;;;;;;6.45;3.20;;;;;;;;;;4986025;28;20070;-67
2023/09/05 09:17:57;;;;;;;5.45;3.10;;;;;;;;;;4992605;28;20052;-67
2023/09/05 09:20:23;;;;;;;3.47;2.92;;;;;;;;;;4995596;28;20042;-67
2023/09/05 09:22:52;;;;;;;4.82;2.70;;;;;;;;;;5001304;28;20419;-67
2023/09/05 09:25:21;;;;;;;7.07;2.97;;;;;;;;;;5003762;28;20026;-67
2023/09/05 09:27:53;;;;;;;6.25;3.13;;;;;;;;;;4981897;28;20100;-67
2023/09/05 09:30:29;;;;;;;6.38;3.25;;;;;;;;;;4982776;28;20069;-67
2023/09/05 09:32:55;;;;;;;4.65;2.90;;;;;;;;;;4994959;28;20515;-67
2023/09/05 09:35:22;;;;;;;3.90;3.00;;;;;;;;;;5000207;28;20053;-67
2023/09/05 09:37:49;;;;;;;4.93;3.13;;;;;;;;;;4999365;28;20061;-67
2023/09/05 09:40:18;;;;;;;4.45;3.17;;;;;;;;;;4992851;28;20535;-67
2023/09/05 09:42:48;;;;;;;4.70;2.95;;;;;;;;;;4993851;28;20033;-67
2023/09/05 09:45:15;;;;;;;5.38;2.75;;;;;;;;;;4994042;28;20045;-67
2023/09/05 09:47:47;;;;;;;6.70;3.30;;;;;;;;;;4985561;28;20519;-67
2023/09/05 09:50:12;;;;;;;5.78;3.30;;;;;;;;;;4993458;28;20043;-67
2023/09/05 09:52:43;;;;;;;4.03;2.70;;;;;;;;;;4998492;28;20046;-67
2023/09/05 09:55:11;;;;;;;3.88;3.00;;;;;;;;;;4999959;28;20037;-67
2023/09/05 09:58:00;;;;;;;4.35;3.20;;;;;;;;;;4994432;28;20042;-67
2023/09/05 10:00:27;;;;;;;5.00;3.05;;;;;;;;;;4983442;28;20046;-67
2023/09/05 10:02:53;;;;;;;4.88;2.90;;;;;;;;;;4985881;28;20496;-67
2023/09/05 10:05:23;;;;;;;3.60;3.00;;;;;;;;;;4988907;28;20034;-67
2023/09/05 10:07:50;;;;;;;5.07;2.90;;;;;;;;;;4992572;28;20050;-70
2023/09/05 10:10:16;;;;;;;5.63;3.17;;;;;;;;;;4974278;28;20038;-68
2023/09/05 10:12:44;;;;;;;3.92;2.92;;;;;;;;;;4977988;28;20029;-68
2023/09/05 10:15:11;;;;;;;3.90;2.80;;;;;;;;;;4977818;28;20046;-67
2023/09/05 10:17:39;;;;;;;3.60;2.92;;;;;;;;;;4999455;28;20046;-67
2023/09/05 10:20:07;;;;;;;10.68;3.80;;;;;;;;;;4995150;28;20042;-67
2023/09/05 10:22:37;;;;;;;4.78;3.10;;;;;;;;;;4998708;28;20443;-67
2023/09/05 10:25:06;;;;;;;5.25;3.00;;;;;;;;;;4996488;28;20243;-67
2023/09/05 10:27:31;;;;;;;3.90;2.97;;;;;;;;;;4992674;28;20073;-67
2023/09/05 10:29:57;;;;;;;4.05;3.10;;;;;;;;;;4992130;28;20569;-68
2023/09/05 10:32:24;;;;;;;3.85;3.03;;;;;;;;;;4998000;28;20574;-67
2023/09/05 10:35:01;;;;;;;6.25;3.45;;;;;;;;;;4998842;28;20065;-67
2023/09/05 10:37:34;;;;;;;4.63;3.13;;;;;;;;;;4989496;28;20113;-67
2023/09/05 10:40:10;;;;;;;4.00;3.03;;;;;;;;;;4998698;28;20105;-67
2023/09/05 10:42:42;;;;;;;5.40;3.30;;;;;;;;;;4997240;28;20042;-68
2023/09/05 10:45:23;;;;;;;4.00;3.03;;;;;;;;;;4978395;28;20088;-67
2023/09/05 10:47:53;;;;;;;4.30;3.08;;;;;;;;;;4973402;28;20053;-67
2023/09/05 10:50:20;;;;;;;6.30;3.28;;;;;;;;;;4980431;28;20061;-67
2023/09/05 10:52:49;;;;;;;5.32;3.17;;;;;;;;;;4981065;28;20042;-67
2023/09/05 10:55:29;;;;;;;6.07;3.30;;;;;;;;;;4978471;28;20022;-68
2023/09/05 10:57:55;;;;;;;5.03;3.00;;;;;;;;;;4994770;28;20157;-67
2023/09/05 11:00:23;;;;;;;4.68;3.33;;;;;;;;;;4998507;28;20778;-67
2023/09/05 11:02:49;;;;;;;4.53;3.42;;;;;;;;;;4997419;28;20038;-68
2023/09/05 11:05:20;;;;;;;4.90;3.30;;;;;;;;;;4990311;28;20569;-67
2023/09/05 11:07:46;;;;;;;5.10;3.03;;;;;;;;;;4991593;28;20030;-67
2023/09/05 11:10:25;;;;;;;5.10;3.30;;;;;;;;;;4997825;28;20022;-67
2023/09/05 11:12:50;;;;;;;6.57;3.42;;;;;;;;;;5002778;28;20026;-68
2023/09/05 11:15:35;;;;;;;3.97;3.05;;;;;;;;;;4992582;28;20032;-67
2023/09/05 11:18:06;;;;;;;5.20;2.95;;;;;;;;;;4979933;28;20088;-68
2023/09/05 11:20:40;;;;;;;4.05;2.85;;;;;;;;;;4992223;28;20042;-68
2023/09/05 11:23:12;;;;;;;3.95;3.13;;;;;;;;;;4980303;28;20050;-68
2023/09/05 11:25:49;;;;;;;6.15;3.03;;;;;;;;;;4991973;28;20026;-67
2023/09/05 11:28:15;;;;;;;5.15;3.15;;;;;;;;;;4994353;28;20691;-67
2023/09/05 11:30:45;;;;;;;5.45;3.25;;;;;;;;;;4979895;28;20026;-67
2023/09/05 11:33:15;;;;;;;5.85;4.28;;;;;;;;;;4991111;28;20081;-68
2023/09/05 11:35:41;;;;;;;4.97;3.38;;;;;;;;;;4995194;28;20053;-68
2023/09/05 11:38:10;;;;;;;4.00;3.60;;;;;;;;;;4996295;28;20166;-68
2023/09/05 11:40:36;;;;;;;4.20;3.13;;;;;;;;;;4983580;28;20041;-68
2023/09/05 11:43:06;;;;;;;5.43;3.00;;;;;;;;;;4992284;28;20038;-68
2023/09/05 11:45:33;;;;;;;4.88;3.20;;;;;;;;;;4991133;28;20515;-68
2023/09/05 11:47:59;;;;;;;4.07;3.45;;;;;;;;;;4994601;28;20031;-68
2023/09/05 11:50:26;;;;;;;4.40;3.67;;;;;;;;;;4999804;28;20404;-68
2023/09/05 11:52:54;;;;;;;4.72;2.90;;;;;;;;;;4994748;28;20045;-68
2023/09/05 11:55:23;;;;;;;4.18;3.15;;;;;;;;;;5001690;28;20038;-68
2023/09/05 11:57:52;;;;;;;4.40;3.28;;;;;;;;;;5000245;28;20022;-68
2023/09/05 12:00:25;;;;;;;4.88;3.50;;;;;;;;;;4995479;28;20038;-68
2023/09/05 12:02:52;;;;;;;3.27;2.97;;;;;;;;;;4996283;28;20038;-68
2023/09/05 12:05:19;;;;;;;5.93;3.00;;;;;;;;;;5001630;28;20666;-68
2023/09/05 12:07:54;;;;;;;6.20;3.60;;;;;;;;;;5001526;28;20814;-68
2023/09/05 12:10:21;;;;;;;3.78;3.05;;;;;;;;;;4985515;28;20044;-68
2023/09/05 12:12:58;;;;;;;4.40;3.60;;;;;;;;;;4996347;28;20122;-68
2023/09/05 12:15:37;;;;;;;5.90;3.60;;;;;;;;;;5002335;28;20520;-67
2023/09/05 12:18:04;;;;;;;4.65;3.13;;;;;;;;;;5003222;28;20130;-68
2023/09/05 12:20:31;;;;;;;4.43;3.50;;;;;;;;;;5000787;28;20068;-68
2023/09/05 12:22:56;;;;;;;4.28;3.20;;;;;;;;;;4993958;28;20468;-68
2023/09/05 12:25:24;;;;;;;5.88;3.30;;;;;;;;;;4994729;28;20540;-68
2023/09/05 12:27:55;;;;;;;4.88;3.33;;;;;;;;;;4981637;28;20018;-68
2023/09/05 12:30:28;;;;;;;4.82;3.42;;;;;;;;;;4994566;28;20033;-68
2023/09/05 12:33:01;;;;;;;5.57;3.80;;;;;;;;;;4995553;28;20047;-68
2023/09/05 12:35:28;;;;;;;6.82;3.63;;;;;;;;;;5000808;28;20828;-68
2023/09/05 12:37:58;;;;;;;4.55;3.50;;;;;;;;;;4999507;28;20034;-68
2023/09/05 12:40:25;;;;;;;5.10;3.60;;;;;;;;;;4994909;28;20129;-68
2023/09/05 12:42:51;;;;;;;4.85;3.45;;;;;;;;;;4994748;28;20034;-68
2023/09/05 12:45:18;;;;;;;6.80;3.47;;;;;;;;;;4993897;28;20041;-68
2023/09/05 12:47:45;;;;;;;7.18;3.60;;;;;;;;;;4981601;28;20038;-68
2023/09/05 12:50:12;;;;;;;6.32;3.28;;;;;;;;;;4994372;28;20073;-68
2023/09/05 12:52:44;;;;;;;4.22;3.60;;;;;;;;;;4999452;28;20110;-68
2023/09/05 12:55:14;;;;;;;5.15;3.80;;;;;;;;;;5000705;28;20075;-68
2023/09/05 12:57:41;;;;;;;6.00;3.50;;;;;;;;;;4995965;28;20141;-68
2023/09/05 13:00:10;;;;;;;4.95;3.92;;;;;;;;;;4993449;28;20703;-68
2023/09/05 13:02:36;;;;;;;4.90;3.58;;;;;;;;;;4996392;28;20129;-68
2023/09/05 13:05:02;;;;;;;6.85;3.70;;;;;;;;;;4997676;28;20053;-68
2023/09/05 13:07:28;;;;;;;4.97;4.00;;;;;;;;;;5001048;28;20027;-68
2023/09/05 13:09:54;;;;;;;7.30;3.60;;;;;;;;;;5000125;28;20097;-68
2023/09/05 13:12:19;;;;;;;5.93;3.92;;;;;;;;;;4995840;28;20121;-68
2023/09/05 13:14:45;;;;;;;9.95;4.60;;;;;;;;;;4992519;28;20639;-68
2023/09/05 13:17:11;;;;;;;3.92;3.53;;;;;;;;;;4994596;28;20044;-68
2023/09/05 13:19:37;;;;;;;5.90;3.63;;;;;;;;;;4998455;28;20515;-68
2023/09/05 13:22:03;;;;;;;4.78;3.60;;;;;;;;;;4998450;28;20030;-68
2023/09/05 13:24:29;;;;;;;5.13;3.80;;;;;;;;;;4992707;28;20030;-68
2023/09/05 13:26:56;;;;;;;5.45;3.65;;;;;;;;;;4992928;28;20030;-68
2023/09/05 13:29:24;;;;;;;6.32;3.65;;;;;;;;;;4996216;28;20142;-68
2023/09/05 13:31:49;;;;;;;6.05;4.03;;;;;;;;;;4999253;28;20066;-68
2023/09/05 13:34:15;;;;;;;4.65;3.80;;;;;;;;;;4996018;28;20534;-68
2023/09/05 13:36:41;;;;;;;5.93;3.97;;;;;;;;;;4993934;28;20511;-68
2023/09/05 13:39:06;;;;;;;6.35;3.97;;;;;;;;;;4997321;28;20046;-68
2023/09/05 13:41:32;;;;;;;5.85;4.22;;;;;;;;;;5005093;28;20069;-68
2023/09/05 13:43:58;;;;;;;8.75;4.50;;;;;;;;;;4999466;28;20034;-68
2023/09/05 13:46:24;;;;;;;8.88;4.30;;;;;;;;;;5002368;28;20014;-68
2023/09/05 13:48:50;;;;;;;4.93;4.15;;;;;;;;;;5000236;28;20029;-68
2023/09/05 13:51:21;;;;;;;6.43;3.80;;;;;;;;;;4996056;28;20037;-68
2023/09/05 13:53:47;;;;;;;4.82;3.90;;;;;;;;;;4992985;28;20126;-68
2023/09/05 13:56:13;;;;;;;5.40;3.85;;;;;;;;;;4995482;28;20137;-68
2023/09/05 13:58:38;;;;;;;7.20;4.28;;;;;;;;;;4999164;28;20053;-68
2023/09/05 14:01:03;;;;;;;4.85;4.18;;;;;;;;;;4997059;28;20021;-68
2023/09/05 14:03:30;;;;;;;5.70;4.35;;;;;;;;;;4992674;28;20038;-68
2023/09/05 14:05:55;;;;;;;8.38;4.18;;;;;;;;;;4994521;28;20046;-68
2023/09/05 14:08:22;;;;;;;8.65;4.20;;;;;;;;;;4998972;28;20035;-68
2023/09/05 14:10:50;;;;;;;8.23;3.95;;;;;;;;;;4997714;28;20029;-68
2023/09/05 14:13:15;;;;;;;5.22;3.55;;;;;;;;;;4992083;28;20499;-68
2023/09/05 14:15:40;;;;;;;6.28;4.30;;;;;;;;;;4992641;28;20030;-68
2023/09/05 14:18:06;;;;;;;6.47;4.00;;;;;;;;;;4998587;28;20030;-68
2023/09/05 14:20:31;;;;;;;7.20;4.20;;;;;;;;;;4998173;28;20088;-68
2023/09/05 14:22:56;;;;;;;6.05;3.42;;;;;;;;;;4992527;28;20065;-68
2023/09/05 14:25:22;;;;;;;5.68;4.03;;;;;;;;;;4992618;28;20030;-68
2023/09/05 14:27:47;;;;;;;5.63;3.85;;;;;;;;;;4998958;28;20027;-68
2023/09/05 14:30:13;;;;;;;6.22;4.47;;;;;;;;;;4988922;28;20121;-68
2023/09/05 14:32:38;;;;;;;7.43;4.15;;;;;;;;;;4994520;28;20121;-69
2023/09/05 14:35:04;;;;;;;6.53;4.10;;;;;;;;;;4977158;28;20172;-69
2023/09/05 14:37:29;;;;;;;5.15;4.25;;;;;;;;;;4999531;28;20416;-68
2023/09/05 14:39:55;;;;;;;5.75;4.80;;;;;;;;;;4991829;28;20048;-68
2023/09/05 14:42:21;;;;;;;5.38;4.40;;;;;;;;;;4995299;28;20034;-68